Des Moines International Airport
KDSM : now visible

Airfield :











YOU CAN JOIN US ON...

 
LOGIN :

Register | Disclaimer

   EN    FR    IT 

 









Legend :    VFR   Marginal VFR   IFR   Intensive IFR   Very Intensive IFR
Visi :
Ceiling :
>= 8 km
>= 3000ft
5 to 8 km
1000 to 3000 ft
1500m to 5 km
500 to 1000 ft
800 to 1500m
200 to 500 ft
< 800m
< 200 ft
Symbols :   Thunderstorms  Fog  Heavy snow  Heavy precipitations  Wind > 20 kt






- Airport Elevation : 958 ft
- IATA code : DSM


KDSM - Des Moines International

CURRENT METAR :
  • 031354Z 02009KT 10SM FEW025 FEW050 17/11 A3014 RMK AO2 SLP200 T01720106

EXPIRED METARs :
  • 031254Z 02009KT 10SM FEW040 FEW070 16/11 A3012 RMK AO2 SLP195 T01610106
  • 031154Z 01009KT 10SM FEW025 FEW040 SCT070 15/11 A3012 RMK AO2 SLP194 T01500111 10178 20144 51012

TAF KDSM
Valid from the 03 at 12:00 until the 04 at 12:00 UTC


031120Z 0312/0412 01008KT P6SM SCT045
FM031700 01010KT P6SM BKN050
FM040100 03005KT P6SM SKC
KZMP FIR / North America



MET'MAP, your aeronautical weather chart ! - Copyright ORBIFLY December 2007 - Disclaimer

ORBIFLY MET'MAP TEAM :

Programming & Development : Alexandra Zaïnal
Concept & original design : Baudouin d'Aumeries
Assistance for programming : Marc-Olivier Méhu
Technical & hardware support : Manuel Goepfert

Contact : metmap@orbifly.com




SOURCES & CREDITS :

   NOAA       Earth
Advisory